createdAt,value
2023-02-19T00:01:32.044Z,102117.31
2023-02-19T00:04:19.414Z,102121.44
2023-02-19T00:06:47.175Z,102110.22
2023-02-19T00:09:15.750Z,102110.22
2023-02-19T00:11:43.167Z,102072.78
2023-02-19T00:14:23.555Z,102022.56
2023-02-19T00:16:50.491Z,102082.47
2023-02-19T00:19:19.111Z,102087.03
2023-02-19T00:22:00.838Z,102072.78
2023-02-19T00:24:27.634Z,102042.03
2023-02-19T00:26:54.443Z,102034.06
2023-02-19T00:29:21.932Z,101935.72
2023-02-19T00:31:48.878Z,102030.03
2023-02-19T00:34:21.693Z,102065.66
2023-02-19T00:37:08.948Z,102094.13
2023-02-19T00:39:43.302Z,101967.44
2023-02-19T00:42:12.711Z,102119.34
2023-02-19T00:44:39.411Z,102084.56
2023-02-19T00:47:06.043Z,102096.56
2023-02-19T00:49:32.717Z,102109.47
2023-02-19T00:52:05.799Z,102046.59
2023-02-19T00:54:32.702Z,102109.25
2023-02-19T00:57:02.341Z,102087.81
2023-02-19T00:59:28.869Z,102084.56
2023-02-19T01:01:55.529Z,102109.28
2023-02-19T01:04:36.273Z,102071.84
2023-02-19T01:07:10.027Z,102064.13
2023-02-19T01:09:42.703Z,102098.22
2023-02-19T01:12:09.316Z,102008.44
2023-02-19T01:14:36.320Z,102097.84
2023-02-19T01:17:06.178Z,102075.69
2023-02-19T01:19:33.419Z,102107.38
2023-02-19T01:21:59.947Z,102036.59
2023-02-19T01:24:29.324Z,102067.25
2023-02-19T01:26:56.344Z,102080.94
2023-02-19T01:29:22.977Z,102060.56
2023-02-19T01:31:52.637Z,102090.69
2023-02-19T01:34:22.316Z,102080.22
2023-02-19T01:36:56.381Z,102090.38
2023-02-19T01:39:30.999Z,101999.44
2023-02-19T01:41:58.672Z,102056.06
2023-02-19T01:44:30.593Z,101937.66
2023-02-19T01:47:00.491Z,102093.28
2023-02-19T01:49:50.020Z,101995.22
2023-02-19T01:52:34.826Z,102085.13
2023-02-19T01:55:18.416Z,102070.09
2023-02-19T01:57:56.221Z,102090.41
2023-02-19T02:00:33.601Z,101989.97
2023-02-19T02:03:01.760Z,102085.63
2023-02-19T02:05:40.037Z,102008.56
2023-02-19T02:08:28.957Z,102048.75
2023-02-19T02:10:58.791Z,102066.84
2023-02-19T02:13:25.662Z,102081.44
2023-02-19T02:16:27.776Z,102071.69
2023-02-19T02:19:13.637Z,101995.69
2023-02-19T02:21:49.350Z,102036.03
2023-02-19T02:24:40.923Z,101991.75
2023-02-19T02:27:34.852Z,102079.16
2023-02-19T02:30:19.725Z,102081.16
2023-02-19T02:32:56.278Z,102066.50
2023-02-19T02:35:30.937Z,102061.38
2023-02-19T02:38:06.066Z,102055.75
2023-02-19T02:40:36.354Z,102012.22
2023-02-19T02:43:05.190Z,102069.63
2023-02-19T02:45:34.936Z,102055.91
2023-02-19T02:48:17.342Z,102051.91
2023-02-19T02:51:04.238Z,102061.38
2023-02-19T02:53:52.860Z,102054.72
2023-02-19T02:56:20.078Z,102048.91
2023-02-19T02:58:50.024Z,102021.47
2023-02-19T03:05:28.411Z,101986.81
2023-02-19T03:08:14.743Z,102014.81
2023-02-19T03:10:43.568Z,102040.56
2023-02-19T03:13:37.526Z,101945.84
2023-02-19T03:16:52.446Z,101960.88
2023-02-19T03:19:25.191Z,102040.75
2023-02-19T03:22:01.813Z,102038.84
2023-02-19T03:24:53.957Z,101997.75
2023-02-19T03:27:26.650Z,101982.28
2023-02-19T03:30:07.315Z,102007.72
2023-02-19T03:32:42.661Z,102034.25
2023-02-19T03:35:28.754Z,102014.63
2023-02-19T03:38:19.541Z,102036.19
2023-02-19T03:41:29.452Z,102033.72
2023-02-19T03:44:08.333Z,101841.00
2023-02-19T03:47:07.534Z,101889.66
2023-02-19T03:50:01.942Z,102030.56
2023-02-19T03:52:59.244Z,102032.88
2023-02-19T03:55:58.233Z,102034.84
2023-02-19T03:58:46.744Z,101979.47
2023-02-19T04:01:22.345Z,102022.72
2023-02-19T04:04:21.037Z,102032.47
2023-02-19T04:06:59.797Z,102013.34
2023-02-19T04:09:45.666Z,102022.97
2023-02-19T04:12:22.687Z,101964.09
2023-02-19T04:14:59.524Z,101985.09
2023-02-19T04:17:56.810Z,102008.22
2023-02-19T04:20:29.910Z,101951.66
2023-02-19T04:23:06.441Z,102029.91
2023-02-19T04:25:36.156Z,101981.19
2023-02-19T04:28:07.847Z,102028.94
2023-02-19T04:30:36.513Z,102025.19
2023-02-19T04:33:03.080Z,101972.47
2023-02-19T04:35:35.333Z,102016.34
2023-02-19T04:38:04.907Z,102026.25
2023-02-19T04:40:40.233Z,102009.16
2023-02-19T04:43:07.022Z,102012.38
2023-02-19T04:45:33.523Z,102013.34
2023-02-19T04:48:07.447Z,101949.97
2023-02-19T04:50:38.053Z,101972.91
2023-02-19T04:53:06.242Z,102031.25
2023-02-19T04:55:39.854Z,102013.94
2023-02-19T04:58:07.540Z,102019.22
2023-02-19T05:00:34.273Z,102015.72
2023-02-19T05:03:04.180Z,102020.84
2023-02-19T05:05:38.040Z,102005.06
2023-02-19T05:08:07.510Z,101900.59
2023-02-19T05:10:46.380Z,102026.25
2023-02-19T05:13:16.665Z,102015.41
2023-02-19T05:16:15.938Z,101956.69
2023-02-19T05:18:48.671Z,102027.41
2023-02-19T05:21:15.553Z,102007.53
2023-02-19T05:23:42.318Z,102023.91
2023-02-19T05:26:21.904Z,102032.63
2023-02-19T05:28:51.080Z,102015.41
2023-02-19T05:31:25.750Z,102013.41
2023-02-19T05:33:55.695Z,101992.69
2023-02-19T05:36:25.618Z,102023.59
2023-02-19T05:38:55.173Z,102024.00
2023-02-19T05:41:27.194Z,102019.03
2023-02-19T05:43:54.536Z,101997.72
2023-02-19T05:46:24.669Z,101939.56
2023-02-19T05:48:52.544Z,101912.47
2023-02-19T05:51:22.719Z,102018.53
2023-02-19T05:53:50.119Z,102013.41
2023-02-19T05:56:38.975Z,101975.31
2023-02-19T05:59:28.611Z,102008.31
2023-02-19T06:01:55.939Z,102010.38
2023-02-19T06:04:23.565Z,101956.53
2023-02-19T06:06:50.484Z,101976.06
2023-02-19T06:09:17.209Z,101993.47
2023-02-19T06:11:45.571Z,101989.97
2023-02-19T06:14:14.075Z,102002.75
2023-02-19T06:16:49.880Z,101993.72
2023-02-19T06:19:19.240Z,101991.84
2023-02-19T06:21:54.979Z,102004.81
2023-02-19T06:24:21.620Z,102004.72
2023-02-19T06:26:48.123Z,101997.13
2023-02-19T06:29:20.624Z,101927.28
2023-02-19T06:31:47.372Z,101961.56
2023-02-19T06:34:17.438Z,102007.28
2023-02-19T06:36:44.642Z,102009.16
2023-02-19T06:39:11.321Z,101872.72
2023-02-19T06:41:45.510Z,101970.09
2023-02-19T06:44:12.083Z,101849.00
2023-02-19T06:46:38.675Z,102017.53
2023-02-19T06:49:08.437Z,101986.28
2023-02-19T06:51:38.467Z,101975.03
2023-02-19T06:54:13.707Z,102014.09
2023-02-19T06:56:43.954Z,101997.09
2023-02-19T06:59:18.062Z,101959.00
2023-02-19T07:01:46.251Z,101989.16
2023-02-19T07:04:13.241Z,101975.28
2023-02-19T07:06:46.554Z,101993.88
2023-02-19T07:09:17.420Z,101989.19
2023-02-19T07:11:44.063Z,101992.72
2023-02-19T07:14:15.708Z,101977.69
2023-02-19T07:16:43.181Z,101966.31
2023-02-19T07:19:29.451Z,101992.50
2023-02-19T07:21:58.834Z,101966.81
2023-02-19T07:24:28.551Z,101982.25
2023-02-19T07:26:58.251Z,101985.13
2023-02-19T07:29:24.978Z,101980.59
2023-02-19T07:31:51.521Z,101980.41
2023-02-19T07:34:18.449Z,101831.06
2023-02-19T07:36:45.379Z,101860.41
2023-02-19T07:39:25.924Z,101927.16
2023-02-19T07:42:00.689Z,101994.41
2023-02-19T07:44:41.191Z,101967.75
2023-02-19T07:47:14.542Z,102002.56
2023-02-19T07:49:41.336Z,101909.44
2023-02-19T07:52:08.100Z,101955.44
2023-02-19T07:54:42.219Z,101988.19
2023-02-19T07:57:12.443Z,101988.53
2023-02-19T07:59:42.062Z,101983.03
2023-02-19T08:02:46.648Z,101990.94
2023-02-19T08:05:13.953Z,101991.97
2023-02-19T08:07:45.090Z,101947.06
2023-02-19T08:10:30.644Z,101977.03
2023-02-19T08:13:20.072Z,101923.97
2023-02-19T08:16:10.964Z,101909.75
2023-02-19T08:18:42.894Z,101932.03
2023-02-19T08:21:10.232Z,101968.13
2023-02-19T08:23:36.987Z,101989.59
2023-02-19T08:26:21.543Z,101984.06
2023-02-19T08:28:51.243Z,101997.88
2023-02-19T08:31:27.416Z,101977.28
2023-02-19T08:34:00.116Z,101972.41
2023-02-19T08:36:36.532Z,101993.00
2023-02-19T08:39:03.580Z,101973.03
2023-02-19T08:41:30.413Z,101980.03
2023-02-19T08:43:59.662Z,102001.31
2023-02-19T08:46:26.840Z,101996.72
2023-02-19T08:49:00.610Z,101993.41
2023-02-19T08:51:27.323Z,101987.47
2023-02-19T08:53:54.775Z,101993.84
2023-02-19T08:56:24.667Z,101926.00
2023-02-19T08:59:00.079Z,102007.63
2023-02-19T09:01:26.848Z,102006.53
2023-02-19T09:03:53.748Z,101992.81
2023-02-19T09:06:25.493Z,101991.66
2023-02-19T09:09:01.152Z,101972.16
2023-02-19T09:11:40.561Z,101993.69
2023-02-19T09:14:07.911Z,101955.56
2023-02-19T09:16:46.648Z,101995.91
2023-02-19T09:19:15.928Z,101989.41
2023-02-19T09:21:45.863Z,101980.28
2023-02-19T09:24:12.408Z,101981.63
2023-02-19T09:26:43.424Z,102002.63
2023-02-19T09:29:15.177Z,101971.25
2023-02-19T09:31:44.124Z,101999.34
2023-02-19T09:34:15.289Z,102001.75
2023-02-19T09:36:45.003Z,101996.31
2023-02-19T09:39:15.079Z,101995.50
2023-02-19T09:41:53.863Z,101995.53
2023-02-19T09:44:31.189Z,101939.13
2023-02-19T09:47:03.200Z,102001.25
2023-02-19T09:49:33.783Z,101938.16
2023-02-19T09:52:18.493Z,101916.41
2023-02-19T09:54:48.519Z,101933.94
2023-02-19T09:57:46.650Z,101980.63
2023-02-19T10:00:26.146Z,101929.69
2023-02-19T10:03:11.190Z,101974.09
2023-02-19T10:05:40.031Z,101944.47
2023-02-19T10:08:18.330Z,101895.91
2023-02-19T10:10:48.165Z,101950.44
2023-02-19T10:13:20.879Z,101895.16
2023-02-19T10:15:56.405Z,101944.78
2023-02-19T10:18:28.486Z,101961.06
2023-02-19T10:20:56.671Z,101888.34
2023-02-19T10:23:25.242Z,101951.28
2023-02-19T10:25:57.166Z,101925.53
2023-02-19T10:28:28.998Z,101947.84
2023-02-19T10:31:02.507Z,101944.13
2023-02-19T10:33:29.666Z,101916.66
2023-02-19T10:36:26.604Z,101892.00
2023-02-19T10:38:58.193Z,101937.88
2023-02-19T10:41:35.922Z,101841.06
2023-02-19T10:44:09.728Z,101940.00
2023-02-19T10:46:59.490Z,101920.78
2023-02-19T10:49:41.255Z,101918.09
2023-02-19T10:52:19.268Z,101912.91
2023-02-19T10:54:59.942Z,101925.34
2023-02-19T10:57:43.848Z,101904.53
2023-02-19T11:00:26.807Z,101922.00
2023-02-19T11:03:26.079Z,101921.94
2023-02-19T11:06:11.060Z,101919.78
2023-02-19T11:08:43.694Z,101913.94
2023-02-19T11:11:11.873Z,101885.53
2023-02-19T11:13:41.872Z,101888.66
2023-02-19T11:16:08.602Z,101857.53
2023-02-19T11:18:38.560Z,101866.03
2023-02-19T11:21:07.327Z,101876.91
2023-02-19T11:23:46.960Z,101888.47
2023-02-19T11:26:21.090Z,101831.09
2023-02-19T11:28:59.182Z,101854.28
2023-02-19T11:31:31.921Z,101856.31
2023-02-19T11:34:01.713Z,101855.88
2023-02-19T11:37:08.142Z,101867.50
2023-02-19T11:39:35.291Z,101853.34
2023-02-19T11:42:32.929Z,101863.53
2023-02-19T11:45:24.732Z,101855.13
2023-02-19T11:48:16.652Z,101801.00
2023-02-19T11:51:01.948Z,101855.59
2023-02-19T11:53:33.679Z,101827.72
2023-02-19T11:56:19.710Z,101858.53
2023-02-19T11:59:13.134Z,101693.16
2023-02-19T12:02:09.781Z,101843.59
2023-02-19T12:05:14.136Z,101842.22
2023-02-19T12:08:18.044Z,101837.88
2023-02-19T12:11:26.493Z,101830.75
2023-02-19T12:14:44.359Z,101833.78
2023-02-19T12:17:49.584Z,101817.53
2023-02-19T12:20:36.522Z,101788.31
2023-02-19T12:23:15.152Z,101823.28
2023-02-19T12:26:03.721Z,101830.47
2023-02-19T12:28:49.076Z,101830.03
2023-02-19T12:31:28.652Z,101821.00
2023-02-19T12:34:30.651Z,101803.19
2023-02-19T12:37:15.535Z,101773.13
2023-02-19T12:40:15.050Z,101819.91
2023-02-19T12:43:04.878Z,101815.66
2023-02-19T12:46:02.567Z,101808.75
2023-02-19T12:49:00.227Z,101806.19
2023-02-19T12:51:42.764Z,101801.03
2023-02-19T12:54:24.505Z,101802.84
2023-02-19T12:57:14.105Z,101801.53
2023-02-19T12:59:53.582Z,101775.03
2023-02-19T13:03:05.320Z,101807.69
2023-02-19T13:05:48.128Z,101799.66
2023-02-19T13:08:20.115Z,101723.78
2023-02-19T13:10:54.848Z,101811.38
2023-02-19T13:13:48.547Z,101778.16
2023-02-19T13:16:20.785Z,101799.47
2023-02-19T13:18:51.981Z,101811.38
2023-02-19T13:21:40.311Z,101728.75
2023-02-19T13:24:25.169Z,101774.00
2023-02-19T13:27:14.605Z,101744.22
2023-02-19T13:29:59.125Z,101790.53
2023-02-19T13:32:56.879Z,101788.25
2023-02-19T13:35:26.620Z,101774.56
2023-02-19T13:38:01.938Z,101780.75
2023-02-19T13:40:34.952Z,101769.81
2023-02-19T13:43:05.661Z,101776.56
2023-02-19T13:45:41.811Z,101680.63
2023-02-19T13:48:33.527Z,101759.28
2023-02-19T13:51:24.790Z,101713.75
2023-02-19T13:54:02.858Z,101688.31
2023-02-19T13:56:39.273Z,101762.38
2023-02-19T13:59:43.283Z,101759.13
2023-02-19T14:02:26.719Z,101762.88
2023-02-19T14:05:13.900Z,101733.25
2023-02-19T14:08:04.431Z,101745.38
2023-02-19T14:10:54.468Z,101755.44
2023-02-19T14:13:57.120Z,101760.38
2023-02-19T14:16:50.425Z,101743.25
2023-02-19T14:19:44.713Z,101755.91
2023-02-19T14:22:48.056Z,101752.19
2023-02-19T14:25:41.519Z,101744.06
2023-02-19T14:28:19.498Z,101703.66
2023-02-19T14:30:56.284Z,101747.69
2023-02-19T14:33:37.748Z,101744.22
2023-02-19T14:36:48.793Z,101731.38
2023-02-19T14:39:37.357Z,101747.19
2023-02-19T14:42:35.647Z,101715.81
2023-02-19T14:45:07.251Z,101738.47
2023-02-19T14:47:36.514Z,101741.56
2023-02-19T14:50:07.241Z,101708.41
2023-02-19T14:52:45.777Z,101724.28
2023-02-19T14:55:30.861Z,101734.59
2023-02-19T14:58:08.396Z,101696.34
2023-02-19T15:00:37.978Z,101725.69
2023-02-19T15:03:05.887Z,101674.00
2023-02-19T15:05:40.021Z,101705.06
2023-02-19T15:08:11.854Z,101674.16
2023-02-19T15:10:42.462Z,101724.72
2023-02-19T15:13:16.734Z,101697.72
2023-02-19T15:15:46.438Z,101704.16
2023-02-19T15:18:24.810Z,101721.66
2023-02-19T15:21:03.197Z,101710.91
2023-02-19T15:23:44.792Z,101713.94
2023-02-19T15:26:42.126Z,101716.34
2023-02-19T15:32:21.880Z,101728.16
2023-02-19T15:34:59.009Z,101705.31
2023-02-19T15:37:35.180Z,101724.94
2023-02-19T15:40:09.328Z,101733.84
2023-02-19T15:42:38.187Z,101739.00
2023-02-19T15:45:13.768Z,101738.78
2023-02-19T15:47:52.772Z,101735.34
2023-02-19T15:50:28.587Z,101729.88
2023-02-19T15:53:26.432Z,101729.69
2023-02-19T15:56:06.746Z,101728.63
2023-02-19T15:58:53.347Z,101728.72
2023-02-19T16:01:49.062Z,101733.97
2023-02-19T16:04:18.489Z,101732.34
2023-02-19T16:06:58.454Z,101705.84
2023-02-19T16:09:41.161Z,101722.00
2023-02-19T16:12:33.175Z,101722.16
2023-02-19T16:15:00.041Z,101738.94
2023-02-19T16:17:28.269Z,101737.78
2023-02-19T16:20:03.471Z,101523.84
2023-02-19T16:22:41.952Z,101657.81
2023-02-19T16:25:28.553Z,101558.94
2023-02-19T16:28:06.394Z,101680.94
2023-02-19T16:30:39.423Z,101754.50
2023-02-19T16:33:41.475Z,101750.06
2023-02-19T16:36:30.636Z,101757.50
2023-02-19T16:39:14.961Z,101689.56
2023-02-19T16:41:51.712Z,101703.63
2023-02-19T16:44:21.660Z,101770.44
2023-02-19T16:47:00.494Z,101767.69
2023-02-19T16:49:27.082Z,101760.63
2023-02-19T16:51:54.633Z,101771.88
2023-02-19T16:54:21.218Z,101791.78
2023-02-19T16:57:04.415Z,101792.03
2023-02-19T16:59:32.223Z,101782.84
2023-02-19T17:01:58.919Z,101636.47
2023-02-19T17:04:27.636Z,101710.97
2023-02-19T17:06:57.084Z,101683.75
2023-02-19T17:09:26.251Z,101789.13
2023-02-19T17:12:06.966Z,101677.31
2023-02-19T17:14:39.868Z,101710.38
2023-02-19T17:17:06.585Z,101690.84
2023-02-19T17:19:34.762Z,101767.13
2023-02-19T17:22:01.498Z,101725.75
2023-02-19T17:24:30.783Z,101698.91
2023-02-19T17:27:00.381Z,101827.34
2023-02-19T17:29:34.082Z,101699.16
2023-02-19T17:32:00.920Z,101695.56
2023-02-19T17:34:30.127Z,101791.16
2023-02-19T17:36:56.897Z,101827.25
2023-02-19T17:39:26.293Z,101821.91
2023-02-19T17:41:56.085Z,101831.34
2023-02-19T17:44:24.535Z,101765.56
2023-02-19T17:47:04.702Z,101810.00
2023-02-19T17:49:36.127Z,101854.25
2023-02-19T17:52:08.793Z,101835.44
2023-02-19T17:54:35.672Z,101849.91
2023-02-19T17:57:02.542Z,101756.75
2023-02-19T17:59:29.212Z,101718.53
2023-02-19T18:01:55.932Z,101886.03
2023-02-19T18:04:25.800Z,101846.91
2023-02-19T18:06:54.102Z,101901.72
2023-02-19T18:09:23.263Z,101779.56
2023-02-19T18:11:53.904Z,101672.75
2023-02-19T18:14:22.957Z,101813.25
2023-02-19T18:16:50.960Z,101913.31
2023-02-19T18:19:18.915Z,101926.66
2023-02-19T18:21:47.002Z,101915.78
2023-02-19T18:24:25.080Z,101904.09
2023-02-19T18:26:51.785Z,101903.63
2023-02-19T18:29:28.526Z,101934.19
2023-02-19T18:31:55.626Z,101926.91
2023-02-19T18:34:22.805Z,101866.56
2023-02-19T18:36:59.056Z,101889.56
2023-02-19T18:39:26.058Z,101906.06
2023-02-19T18:41:52.709Z,101890.88
2023-02-19T18:44:21.157Z,101875.75
2023-02-19T18:46:48.006Z,101775.41
2023-02-19T18:49:15.749Z,101755.28
2023-02-19T18:51:49.186Z,101885.44
2023-02-19T18:54:24.202Z,101908.97
2023-02-19T18:56:51.280Z,101906.88
2023-02-19T18:59:39.537Z,101863.47
2023-02-19T19:02:07.763Z,101902.66
2023-02-19T19:04:37.794Z,101899.63
2023-02-19T19:07:06.553Z,101896.34
2023-02-19T19:09:36.769Z,101923.72
2023-02-19T19:12:03.838Z,101845.69
2023-02-19T19:14:30.531Z,101922.75
2023-02-19T19:17:00.282Z,101911.94
2023-02-19T19:19:26.879Z,101912.06
2023-02-19T19:21:57.351Z,101918.13
2023-02-19T19:24:24.728Z,101900.91
2023-02-19T19:26:52.262Z,101817.69
2023-02-19T19:29:27.344Z,101943.25
2023-02-19T19:31:57.388Z,101930.84
2023-02-19T19:34:24.219Z,101941.75
2023-02-19T19:36:53.807Z,101948.84
2023-02-19T19:39:20.345Z,101943.41
2023-02-19T19:41:46.874Z,101921.03
2023-02-19T19:44:14.572Z,101942.41
2023-02-19T19:46:52.388Z,101889.72
2023-02-19T19:49:20.544Z,101917.56
2023-02-19T19:51:50.116Z,101704.28
2023-02-19T19:54:21.082Z,101975.63
2023-02-19T19:56:47.843Z,101964.06
2023-02-19T19:59:19.978Z,101970.34
2023-02-19T20:01:55.314Z,101835.50
2023-02-19T20:04:25.863Z,101968.06
2023-02-19T20:06:55.660Z,101958.19
2023-02-19T20:09:25.568Z,101988.09
2023-02-19T20:11:57.431Z,101983.66
2023-02-19T20:14:26.915Z,102016.59
2023-02-19T20:17:02.852Z,101995.47
2023-02-19T20:19:29.483Z,102018.41
2023-02-19T20:21:56.160Z,101990.75
2023-02-19T20:24:28.908Z,102007.88
2023-02-19T20:27:00.561Z,101748.84
2023-02-19T20:29:33.335Z,102008.50
2023-02-19T20:32:02.445Z,102006.78
2023-02-19T20:34:33.312Z,102018.81
2023-02-19T20:37:00.031Z,101973.34
2023-02-19T20:39:29.975Z,102030.81
2023-02-19T20:41:58.479Z,102037.72
2023-02-19T20:44:31.695Z,102029.84
2023-02-19T20:47:04.547Z,102023.16
2023-02-19T20:49:34.413Z,102042.13
2023-02-19T20:52:05.285Z,102052.75
2023-02-19T20:54:35.048Z,102056.34
2023-02-19T20:57:04.103Z,102017.94
2023-02-19T20:59:38.755Z,102052.44
2023-02-19T21:02:17.603Z,102071.75
2023-02-19T21:04:56.792Z,102074.94
2023-02-19T21:07:33.433Z,102041.78
2023-02-19T21:10:05.510Z,102082.97
2023-02-19T21:12:52.903Z,102083.19
2023-02-19T21:15:34.780Z,102068.28
2023-02-19T21:18:15.249Z,102043.00
2023-02-19T21:20:57.590Z,102055.97
2023-02-19T21:23:38.937Z,102060.97
2023-02-19T21:26:15.626Z,102066.59
2023-02-19T21:28:45.054Z,102044.88
2023-02-19T21:31:16.779Z,102077.44
2023-02-19T21:33:47.647Z,102087.00
2023-02-19T21:36:21.530Z,102064.53
2023-02-19T21:39:20.588Z,102081.44
2023-02-19T21:41:50.225Z,102088.28
2023-02-19T21:44:34.677Z,102082.06
2023-02-19T21:47:03.782Z,102050.44
2023-02-19T21:49:34.224Z,102056.75
2023-02-19T21:52:00.820Z,102084.28
2023-02-19T21:54:30.952Z,102093.34
2023-02-19T21:57:07.116Z,102095.81
2023-02-19T21:59:42.631Z,102098.72
2023-02-19T22:02:36.477Z,102115.22
2023-02-19T22:05:04.461Z,102012.97
2023-02-19T22:07:39.240Z,102124.72
2023-02-19T22:10:16.062Z,102071.78
2023-02-19T22:12:50.789Z,102065.25
2023-02-19T22:15:17.499Z,102117.31
2023-02-19T22:17:51.452Z,102083.47
2023-02-19T22:20:19.667Z,102069.56
2023-02-19T22:22:50.228Z,102054.16
2023-02-19T22:25:22.684Z,102092.94
2023-02-19T22:27:49.393Z,102067.38
2023-02-19T22:30:16.242Z,102091.53
2023-02-19T22:32:43.041Z,102084.41
2023-02-19T22:35:15.387Z,102057.47
2023-02-19T22:37:52.914Z,102111.09
2023-02-19T22:40:19.789Z,102116.88
2023-02-19T22:42:50.237Z,102107.59
2023-02-19T22:45:31.820Z,102088.63
2023-02-19T22:48:06.511Z,102087.03
2023-02-19T22:50:48.240Z,102114.50
2023-02-19T22:53:15.588Z,102111.00
2023-02-19T22:56:00.350Z,102123.72
2023-02-19T23:01:13.339Z,102057.47
2023-02-19T23:03:55.142Z,102014.13
2023-02-19T23:06:33.794Z,102108.84
2023-02-19T23:09:21.639Z,102095.94
2023-02-19T23:11:51.555Z,102096.03
2023-02-19T23:14:26.899Z,102027.44
2023-02-19T23:16:53.545Z,102089.03
2023-02-19T23:19:20.171Z,102010.69
2023-02-19T23:21:54.409Z,101957.88
2023-02-19T23:24:30.133Z,102108.44
2023-02-19T23:27:07.646Z,102090.56
2023-02-19T23:29:41.147Z,102073.03
2023-02-19T23:32:12.815Z,101966.38
2023-02-19T23:34:42.717Z,102056.72
2023-02-19T23:37:09.339Z,102084.28
2023-02-19T23:39:44.958Z,102073.50
2023-02-19T23:42:20.453Z,102103.91
2023-02-19T23:44:47.660Z,102061.63
2023-02-19T23:47:23.357Z,101996.47
2023-02-19T23:49:50.028Z,102052.94
2023-02-19T23:52:17.775Z,102027.28
2023-02-19T23:54:47.375Z,101910.19
